sensor_id;sensor_type;location;lat;lon;timestamp;P1;durP1;ratioP1;P2;durP2;ratioP2
9700;SDS011;4889;48.620;7.892;2023-05-13T00:01:32;0.60;;;0.20;;
9700;SDS011;4889;48.620;7.892;2023-05-13T00:04:02;0.60;;;0.20;;
9700;SDS011;4889;48.620;7.892;2023-05-13T00:06:28;0.60;;;0.20;;
9700;SDS011;4889;48.620;7.892;2023-05-13T00:08:53;0.60;;;0.20;;
9700;SDS011;4889;48.620;7.892;2023-05-13T00:11:18;1.63;;;0.83;;
9700;SDS011;4889;48.620;7.892;2023-05-13T00:13:43;0.60;;;0.20;;
9700;SDS011;4889;48.620;7.892;2023-05-13T00:16:08;0.60;;;0.20;;
9700;SDS011;4889;48.620;7.892;2023-05-13T00:18:34;0.60;;;0.20;;
9700;SDS011;4889;48.620;7.892;2023-05-13T00:20:59;0.60;;;0.20;;
9700;SDS011;4889;48.620;7.892;2023-05-13T00:23:24;0.60;;;0.20;;
9700;SDS011;4889;48.620;7.892;2023-05-13T00:25:49;0.60;;;0.30;;
9700;SDS011;4889;48.620;7.892;2023-05-13T00:28:15;0.50;;;0.20;;
9700;SDS011;4889;48.620;7.892;2023-05-13T00:30:43;0.60;;;0.20;;
9700;SDS011;4889;48.620;7.892;2023-05-13T00:33:09;0.60;;;0.20;;
9700;SDS011;4889;48.620;7.892;2023-05-13T00:35:35;0.60;;;0.20;;
9700;SDS011;4889;48.620;7.892;2023-05-13T00:38:00;0.57;;;0.30;;
9700;SDS011;4889;48.620;7.892;2023-05-13T00:40:25;0.60;;;0.20;;
9700;SDS011;4889;48.620;7.892;2023-05-13T00:42:51;0.60;;;0.30;;
9700;SDS011;4889;48.620;7.892;2023-05-13T00:45:16;0.60;;;0.20;;
9700;SDS011;4889;48.620;7.892;2023-05-13T00:47:42;0.60;;;0.20;;
9700;SDS011;4889;48.620;7.892;2023-05-13T00:50:08;0.60;;;0.40;;
9700;SDS011;4889;48.620;7.892;2023-05-13T00:52:34;0.60;;;0.20;;
9700;SDS011;4889;48.620;7.892;2023-05-13T00:55:00;0.60;;;0.20;;
9700;SDS011;4889;48.620;7.892;2023-05-13T00:57:25;0.60;;;0.23;;
9700;SDS011;4889;48.620;7.892;2023-05-13T00:59:50;0.60;;;0.20;;
9700;SDS011;4889;48.620;7.892;2023-05-13T01:02:26;0.60;;;0.20;;
9700;SDS011;4889;48.620;7.892;2023-05-13T01:07:28;0.60;;;0.20;;
9700;SDS011;4889;48.620;7.892;2023-05-13T01:09:59;0.60;;;0.20;;
9700;SDS011;4889;48.620;7.892;2023-05-13T01:12:38;0.60;;;0.20;;
9700;SDS011;4889;48.620;7.892;2023-05-13T01:15:05;0.60;;;0.30;;
9700;SDS011;4889;48.620;7.892;2023-05-13T01:17:31;0.60;;;0.20;;
9700;SDS011;4889;48.620;7.892;2023-05-13T01:19:59;0.60;;;0.30;;
9700;SDS011;4889;48.620;7.892;2023-05-13T01:22:26;0.50;;;0.20;;
9700;SDS011;4889;48.620;7.892;2023-05-13T01:24:52;0.53;;;0.20;;
9700;SDS011;4889;48.620;7.892;2023-05-13T01:27:17;0.60;;;0.30;;
9700;SDS011;4889;48.620;7.892;2023-05-13T01:29:42;0.60;;;0.20;;
9700;SDS011;4889;48.620;7.892;2023-05-13T01:32:08;0.60;;;0.20;;
9700;SDS011;4889;48.620;7.892;2023-05-13T01:34:34;0.60;;;0.27;;
9700;SDS011;4889;48.620;7.892;2023-05-13T01:36:59;0.60;;;0.30;;
9700;SDS011;4889;48.620;7.892;2023-05-13T01:39:25;0.60;;;0.20;;
9700;SDS011;4889;48.620;7.892;2023-05-13T01:41:51;0.60;;;0.20;;
9700;SDS011;4889;48.620;7.892;2023-05-13T01:44:16;0.50;;;0.20;;
9700;SDS011;4889;48.620;7.892;2023-05-13T01:46:42;0.73;;;0.70;;
9700;SDS011;4889;48.620;7.892;2023-05-13T01:49:07;0.60;;;0.30;;
9700;SDS011;4889;48.620;7.892;2023-05-13T01:51:34;0.60;;;0.20;;
9700;SDS011;4889;48.620;7.892;2023-05-13T01:54:00;0.60;;;0.20;;
9700;SDS011;4889;48.620;7.892;2023-05-13T01:56:26;0.60;;;0.20;;
9700;SDS011;4889;48.620;7.892;2023-05-13T01:58:51;0.80;;;0.73;;
9700;SDS011;4889;48.620;7.892;2023-05-13T02:01:16;0.60;;;0.20;;
9700;SDS011;4889;48.620;7.892;2023-05-13T02:03:41;0.60;;;0.30;;
9700;SDS011;4889;48.620;7.892;2023-05-13T02:06:06;0.60;;;0.30;;
9700;SDS011;4889;48.620;7.892;2023-05-13T02:08:32;0.60;;;0.20;;
9700;SDS011;4889;48.620;7.892;2023-05-13T02:10:57;0.60;;;0.30;;
9700;SDS011;4889;48.620;7.892;2023-05-13T02:13:23;0.60;;;0.20;;
9700;SDS011;4889;48.620;7.892;2023-05-13T02:15:49;0.57;;;0.20;;
9700;SDS011;4889;48.620;7.892;2023-05-13T02:18:14;1.70;;;0.70;;
9700;SDS011;4889;48.620;7.892;2023-05-13T02:20:39;0.60;;;0.20;;
9700;SDS011;4889;48.620;7.892;2023-05-13T02:23:05;0.60;;;0.20;;
9700;SDS011;4889;48.620;7.892;2023-05-13T02:25:30;0.60;;;0.30;;
9700;SDS011;4889;48.620;7.892;2023-05-13T02:27:56;0.60;;;0.20;;
9700;SDS011;4889;48.620;7.892;2023-05-13T02:30:21;0.50;;;0.20;;
9700;SDS011;4889;48.620;7.892;2023-05-13T02:32:50;0.60;;;0.30;;
9700;SDS011;4889;48.620;7.892;2023-05-13T02:35:16;0.60;;;0.20;;
9700;SDS011;4889;48.620;7.892;2023-05-13T02:37:41;0.60;;;0.20;;
9700;SDS011;4889;48.620;7.892;2023-05-13T02:40:06;0.60;;;0.30;;
9700;SDS011;4889;48.620;7.892;2023-05-13T02:42:31;0.60;;;0.20;;
9700;SDS011;4889;48.620;7.892;2023-05-13T02:44:57;0.60;;;0.30;;
9700;SDS011;4889;48.620;7.892;2023-05-13T02:47:22;0.60;;;0.30;;
9700;SDS011;4889;48.620;7.892;2023-05-13T02:49:47;0.80;;;0.80;;
9700;SDS011;4889;48.620;7.892;2023-05-13T02:52:13;0.60;;;0.30;;
9700;SDS011;4889;48.620;7.892;2023-05-13T02:54:38;0.60;;;0.20;;
9700;SDS011;4889;48.620;7.892;2023-05-13T02:57:03;0.60;;;0.20;;
9700;SDS011;4889;48.620;7.892;2023-05-13T02:59:28;0.60;;;0.20;;
9700;SDS011;4889;48.620;7.892;2023-05-13T03:01:54;0.60;;;0.30;;
9700;SDS011;4889;48.620;7.892;2023-05-13T03:04:19;0.57;;;0.30;;
9700;SDS011;4889;48.620;7.892;2023-05-13T03:06:45;0.60;;;0.30;;
9700;SDS011;4889;48.620;7.892;2023-05-13T03:09:10;0.60;;;0.20;;
9700;SDS011;4889;48.620;7.892;2023-05-13T03:11:35;0.60;;;0.30;;
9700;SDS011;4889;48.620;7.892;2023-05-13T03:14:01;0.60;;;0.20;;
9700;SDS011;4889;48.620;7.892;2023-05-13T03:16:26;0.60;;;0.20;;
9700;SDS011;4889;48.620;7.892;2023-05-13T03:18:51;0.60;;;0.20;;
9700;SDS011;4889;48.620;7.892;2023-05-13T03:21:16;0.60;;;0.20;;
9700;SDS011;4889;48.620;7.892;2023-05-13T03:23:42;0.60;;;0.20;;
9700;SDS011;4889;48.620;7.892;2023-05-13T03:26:07;0.60;;;0.30;;
9700;SDS011;4889;48.620;7.892;2023-05-13T03:28:32;0.50;;;0.20;;
9700;SDS011;4889;48.620;7.892;2023-05-13T03:30:57;0.50;;;0.20;;
9700;SDS011;4889;48.620;7.892;2023-05-13T03:33:22;0.50;;;0.20;;
9700;SDS011;4889;48.620;7.892;2023-05-13T03:35:48;0.60;;;0.20;;
9700;SDS011;4889;48.620;7.892;2023-05-13T03:38:13;0.57;;;0.20;;
9700;SDS011;4889;48.620;7.892;2023-05-13T03:40:38;0.53;;;0.20;;
9700;SDS011;4889;48.620;7.892;2023-05-13T03:43:04;0.57;;;0.20;;
9700;SDS011;4889;48.620;7.892;2023-05-13T03:45:29;0.60;;;0.30;;
9700;SDS011;4889;48.620;7.892;2023-05-13T03:47:54;0.50;;;0.27;;
9700;SDS011;4889;48.620;7.892;2023-05-13T03:50:20;0.50;;;0.20;;
9700;SDS011;4889;48.620;7.892;2023-05-13T03:52:45;0.60;;;0.30;;
9700;SDS011;4889;48.620;7.892;2023-05-13T03:55:11;0.60;;;0.20;;
9700;SDS011;4889;48.620;7.892;2023-05-13T03:57:38;0.60;;;0.20;;
9700;SDS011;4889;48.620;7.892;2023-05-13T04:00:04;0.60;;;0.30;;
9700;SDS011;4889;48.620;7.892;2023-05-13T04:02:29;0.70;;;0.60;;
9700;SDS011;4889;48.620;7.892;2023-05-13T04:04:54;0.60;;;0.20;;
9700;SDS011;4889;48.620;7.892;2023-05-13T04:07:19;0.50;;;0.20;;
9700;SDS011;4889;48.620;7.892;2023-05-13T04:09:46;0.60;;;0.20;;
9700;SDS011;4889;48.620;7.892;2023-05-13T04:12:11;0.60;;;0.20;;
9700;SDS011;4889;48.620;7.892;2023-05-13T04:14:36;0.60;;;0.30;;
9700;SDS011;4889;48.620;7.892;2023-05-13T04:17:02;0.50;;;0.20;;
9700;SDS011;4889;48.620;7.892;2023-05-13T04:19:27;0.57;;;0.20;;
9700;SDS011;4889;48.620;7.892;2023-05-13T04:21:52;0.50;;;0.20;;
9700;SDS011;4889;48.620;7.892;2023-05-13T04:24:17;0.50;;;0.20;;
9700;SDS011;4889;48.620;7.892;2023-05-13T04:26:43;0.60;;;0.20;;
9700;SDS011;4889;48.620;7.892;2023-05-13T04:29:08;0.60;;;0.20;;
9700;SDS011;4889;48.620;7.892;2023-05-13T04:31:33;0.50;;;0.20;;
9700;SDS011;4889;48.620;7.892;2023-05-13T04:33:58;2.50;;;2.30;;
9700;SDS011;4889;48.620;7.892;2023-05-13T04:36:24;0.60;;;0.20;;
9700;SDS011;4889;48.620;7.892;2023-05-13T04:38:49;1.03;;;0.93;;
9700;SDS011;4889;48.620;7.892;2023-05-13T04:41:16;0.50;;;0.20;;
9700;SDS011;4889;48.620;7.892;2023-05-13T04:43:41;0.50;;;0.20;;
9700;SDS011;4889;48.620;7.892;2023-05-13T04:46:06;0.50;;;0.20;;
9700;SDS011;4889;48.620;7.892;2023-05-13T04:48:31;0.60;;;0.20;;
9700;SDS011;4889;48.620;7.892;2023-05-13T04:50:57;0.60;;;0.30;;
9700;SDS011;4889;48.620;7.892;2023-05-13T04:53:22;0.50;;;0.20;;
9700;SDS011;4889;48.620;7.892;2023-05-13T04:55:48;1.57;;;1.37;;
9700;SDS011;4889;48.620;7.892;2023-05-13T04:58:13;0.50;;;0.20;;
9700;SDS011;4889;48.620;7.892;2023-05-13T05:00:39;0.60;;;0.30;;
9700;SDS011;4889;48.620;7.892;2023-05-13T05:03:04;3.80;;;1.80;;
9700;SDS011;4889;48.620;7.892;2023-05-13T05:05:29;0.60;;;0.20;;
9700;SDS011;4889;48.620;7.892;2023-05-13T05:07:55;0.50;;;0.20;;
9700;SDS011;4889;48.620;7.892;2023-05-13T05:10:20;1.57;;;0.93;;
9700;SDS011;4889;48.620;7.892;2023-05-13T05:12:45;0.50;;;0.20;;
9700;SDS011;4889;48.620;7.892;2023-05-13T05:15:10;0.60;;;0.30;;
9700;SDS011;4889;48.620;7.892;2023-05-13T05:17:42;0.50;;;0.20;;
9700;SDS011;4889;48.620;7.892;2023-05-13T05:20:08;0.60;;;0.20;;
9700;SDS011;4889;48.620;7.892;2023-05-13T05:22:34;0.60;;;0.23;;
9700;SDS011;4889;48.620;7.892;2023-05-13T05:25:00;0.60;;;0.20;;
9700;SDS011;4889;48.620;7.892;2023-05-13T05:27:25;0.60;;;0.20;;
9700;SDS011;4889;48.620;7.892;2023-05-13T05:29:50;0.60;;;0.20;;
9700;SDS011;4889;48.620;7.892;2023-05-13T05:32:15;0.60;;;0.50;;
9700;SDS011;4889;48.620;7.892;2023-05-13T05:34:41;0.60;;;0.20;;
9700;SDS011;4889;48.620;7.892;2023-05-13T05:37:06;0.60;;;0.20;;
9700;SDS011;4889;48.620;7.892;2023-05-13T05:39:31;0.60;;;0.20;;
9700;SDS011;4889;48.620;7.892;2023-05-13T05:41:56;0.60;;;0.20;;
9700;SDS011;4889;48.620;7.892;2023-05-13T05:44:22;0.50;;;0.20;;
9700;SDS011;4889;48.620;7.892;2023-05-13T05:46:47;0.60;;;0.20;;
9700;SDS011;4889;48.620;7.892;2023-05-13T05:49:12;0.50;;;0.20;;
9700;SDS011;4889;48.620;7.892;2023-05-13T05:51:37;1.37;;;0.60;;
9700;SDS011;4889;48.620;7.892;2023-05-13T05:54:03;0.50;;;0.20;;
9700;SDS011;4889;48.620;7.892;2023-05-13T05:56:28;0.60;;;0.20;;
9700;SDS011;4889;48.620;7.892;2023-05-13T05:58:53;0.53;;;0.20;;
9700;SDS011;4889;48.620;7.892;2023-05-13T06:01:19;0.60;;;0.30;;
9700;SDS011;4889;48.620;7.892;2023-05-13T06:03:44;0.60;;;0.20;;
9700;SDS011;4889;48.620;7.892;2023-05-13T06:06:09;0.60;;;0.27;;
9700;SDS011;4889;48.620;7.892;2023-05-13T06:08:35;0.60;;;0.20;;
9700;SDS011;4889;48.620;7.892;2023-05-13T06:11:00;0.60;;;0.30;;
9700;SDS011;4889;48.620;7.892;2023-05-13T06:13:25;0.60;;;0.30;;
9700;SDS011;4889;48.620;7.892;2023-05-13T06:15:50;0.60;;;0.30;;
9700;SDS011;4889;48.620;7.892;2023-05-13T06:18:16;0.60;;;0.20;;
9700;SDS011;4889;48.620;7.892;2023-05-13T06:20:41;0.60;;;0.20;;
9700;SDS011;4889;48.620;7.892;2023-05-13T06:23:07;0.60;;;0.30;;
9700;SDS011;4889;48.620;7.892;2023-05-13T06:25:32;0.60;;;0.27;;
9700;SDS011;4889;48.620;7.892;2023-05-13T06:27:57;0.60;;;0.20;;
9700;SDS011;4889;48.620;7.892;2023-05-13T06:30:22;0.60;;;0.20;;
9700;SDS011;4889;48.620;7.892;2023-05-13T06:32:48;0.60;;;0.23;;
9700;SDS011;4889;48.620;7.892;2023-05-13T06:35:13;0.60;;;0.20;;
9700;SDS011;4889;48.620;7.892;2023-05-13T06:37:38;0.60;;;0.40;;
9700;SDS011;4889;48.620;7.892;2023-05-13T06:40:03;0.70;;;0.63;;
9700;SDS011;4889;48.620;7.892;2023-05-13T06:42:29;0.80;;;0.50;;
9700;SDS011;4889;48.620;7.892;2023-05-13T06:44:54;0.60;;;0.30;;
9700;SDS011;4889;48.620;7.892;2023-05-13T06:47:19;0.60;;;0.20;;
9700;SDS011;4889;48.620;7.892;2023-05-13T06:49:44;0.63;;;0.37;;
9700;SDS011;4889;48.620;7.892;2023-05-13T06:52:10;0.60;;;0.30;;
9700;SDS011;4889;48.620;7.892;2023-05-13T06:54:35;2.03;;;0.40;;
9700;SDS011;4889;48.620;7.892;2023-05-13T06:57:00;0.60;;;0.30;;
9700;SDS011;4889;48.620;7.892;2023-05-13T06:59:25;0.60;;;0.30;;
9700;SDS011;4889;48.620;7.892;2023-05-13T07:01:51;0.60;;;0.30;;
9700;SDS011;4889;48.620;7.892;2023-05-13T07:04:16;0.60;;;0.20;;
9700;SDS011;4889;48.620;7.892;2023-05-13T07:06:41;0.60;;;0.20;;
9700;SDS011;4889;48.620;7.892;2023-05-13T07:09:06;0.60;;;0.30;;
9700;SDS011;4889;48.620;7.892;2023-05-13T07:11:34;0.60;;;0.30;;
9700;SDS011;4889;48.620;7.892;2023-05-13T07:13:59;0.60;;;0.23;;
9700;SDS011;4889;48.620;7.892;2023-05-13T07:16:24;1.00;;;0.57;;
9700;SDS011;4889;48.620;7.892;2023-05-13T07:18:49;0.60;;;0.20;;
9700;SDS011;4889;48.620;7.892;2023-05-13T07:21:15;0.60;;;0.30;;
9700;SDS011;4889;48.620;7.892;2023-05-13T07:23:40;0.60;;;0.30;;
9700;SDS011;4889;48.620;7.892;2023-05-13T07:26:06;0.60;;;0.40;;
9700;SDS011;4889;48.620;7.892;2023-05-13T07:28:31;1.10;;;0.97;;
9700;SDS011;4889;48.620;7.892;2023-05-13T07:30:57;0.70;;;0.50;;
9700;SDS011;4889;48.620;7.892;2023-05-13T07:33:22;2.70;;;0.73;;
9700;SDS011;4889;48.620;7.892;2023-05-13T07:35:47;0.60;;;0.30;;
9700;SDS011;4889;48.620;7.892;2023-05-13T07:38:12;0.60;;;0.20;;
9700;SDS011;4889;48.620;7.892;2023-05-13T07:40:38;0.60;;;0.20;;
9700;SDS011;4889;48.620;7.892;2023-05-13T07:43:03;0.60;;;0.20;;
9700;SDS011;4889;48.620;7.892;2023-05-13T07:45:28;0.60;;;0.30;;
9700;SDS011;4889;48.620;7.892;2023-05-13T07:47:54;0.60;;;0.23;;
9700;SDS011;4889;48.620;7.892;2023-05-13T07:50:20;0.60;;;0.30;;
9700;SDS011;4889;48.620;7.892;2023-05-13T07:52:45;0.60;;;0.30;;
9700;SDS011;4889;48.620;7.892;2023-05-13T07:55:13;0.60;;;0.20;;
9700;SDS011;4889;48.620;7.892;2023-05-13T07:57:38;0.60;;;0.30;;
9700;SDS011;4889;48.620;7.892;2023-05-13T08:00:04;0.60;;;0.20;;
9700;SDS011;4889;48.620;7.892;2023-05-13T08:02:29;0.60;;;0.30;;
9700;SDS011;4889;48.620;7.892;2023-05-13T08:04:58;0.60;;;0.30;;
9700;SDS011;4889;48.620;7.892;2023-05-13T08:07:23;0.60;;;0.30;;
9700;SDS011;4889;48.620;7.892;2023-05-13T08:09:49;0.60;;;0.30;;
9700;SDS011;4889;48.620;7.892;2023-05-13T08:12:14;0.60;;;0.23;;
9700;SDS011;4889;48.620;7.892;2023-05-13T08:14:39;0.60;;;0.30;;
9700;SDS011;4889;48.620;7.892;2023-05-13T08:17:04;0.60;;;0.30;;
9700;SDS011;4889;48.620;7.892;2023-05-13T08:19:31;0.60;;;0.30;;
9700;SDS011;4889;48.620;7.892;2023-05-13T08:21:56;0.60;;;0.30;;
9700;SDS011;4889;48.620;7.892;2023-05-13T08:24:21;0.60;;;0.23;;
9700;SDS011;4889;48.620;7.892;2023-05-13T08:26:47;0.60;;;0.30;;
9700;SDS011;4889;48.620;7.892;2023-05-13T08:29:12;0.60;;;0.30;;
9700;SDS011;4889;48.620;7.892;2023-05-13T08:31:39;0.67;;;0.43;;
9700;SDS011;4889;48.620;7.892;2023-05-13T08:34:05;7.93;;;0.87;;
9700;SDS011;4889;48.620;7.892;2023-05-13T08:36:30;0.60;;;0.20;;
9700;SDS011;4889;48.620;7.892;2023-05-13T08:38:55;0.60;;;0.20;;
9700;SDS011;4889;48.620;7.892;2023-05-13T08:41:20;0.60;;;0.30;;
9700;SDS011;4889;48.620;7.892;2023-05-13T08:43:46;0.60;;;0.20;;
9700;SDS011;4889;48.620;7.892;2023-05-13T08:46:12;0.60;;;0.30;;
9700;SDS011;4889;48.620;7.892;2023-05-13T08:48:40;0.60;;;0.30;;
9700;SDS011;4889;48.620;7.892;2023-05-13T08:51:06;0.60;;;0.30;;
9700;SDS011;4889;48.620;7.892;2023-05-13T08:53:32;0.60;;;0.30;;
9700;SDS011;4889;48.620;7.892;2023-05-13T08:55:58;0.70;;;0.30;;
9700;SDS011;4889;48.620;7.892;2023-05-13T08:58:24;0.60;;;0.20;;
9700;SDS011;4889;48.620;7.892;2023-05-13T09:00:49;0.70;;;0.30;;
9700;SDS011;4889;48.620;7.892;2023-05-13T09:03:15;1.00;;;0.50;;
9700;SDS011;4889;48.620;7.892;2023-05-13T09:05:42;0.70;;;0.30;;
9700;SDS011;4889;48.620;7.892;2023-05-13T09:08:07;0.90;;;0.60;;
9700;SDS011;4889;48.620;7.892;2023-05-13T09:10:33;0.80;;;0.30;;
9700;SDS011;4889;48.620;7.892;2023-05-13T09:12:59;0.80;;;0.30;;
9700;SDS011;4889;48.620;7.892;2023-05-13T09:15:25;0.80;;;0.30;;
9700;SDS011;4889;48.620;7.892;2023-05-13T09:20:20;0.90;;;0.40;;
9700;SDS011;4889;48.620;7.892;2023-05-13T09:22:46;0.80;;;0.30;;
9700;SDS011;4889;48.620;7.892;2023-05-13T09:25:12;0.90;;;0.30;;
9700;SDS011;4889;48.620;7.892;2023-05-13T09:27:38;1.10;;;0.30;;
9700;SDS011;4889;48.620;7.892;2023-05-13T09:30:04;0.90;;;0.30;;
9700;SDS011;4889;48.620;7.892;2023-05-13T09:32:30;1.10;;;0.63;;
9700;SDS011;4889;48.620;7.892;2023-05-13T09:34:55;1.00;;;0.30;;
9700;SDS011;4889;48.620;7.892;2023-05-13T09:37:22;1.00;;;0.30;;
9700;SDS011;4889;48.620;7.892;2023-05-13T09:39:47;0.90;;;0.30;;
9700;SDS011;4889;48.620;7.892;2023-05-13T09:42:16;0.90;;;0.30;;
9700;SDS011;4889;48.620;7.892;2023-05-13T09:44:42;0.90;;;0.37;;
9700;SDS011;4889;48.620;7.892;2023-05-13T09:47:11;0.90;;;0.30;;
9700;SDS011;4889;48.620;7.892;2023-05-13T09:49:36;0.90;;;0.30;;
9700;SDS011;4889;48.620;7.892;2023-05-13T09:52:02;1.07;;;0.50;;
9700;SDS011;4889;48.620;7.892;2023-05-13T09:54:33;1.10;;;0.40;;
9700;SDS011;4889;48.620;7.892;2023-05-13T09:57:00;1.30;;;0.30;;
9700;SDS011;4889;48.620;7.892;2023-05-13T09:59:25;1.30;;;0.30;;
9700;SDS011;4889;48.620;7.892;2023-05-13T10:01:50;1.30;;;0.30;;
9700;SDS011;4889;48.620;7.892;2023-05-13T10:04:17;1.40;;;0.30;;
9700;SDS011;4889;48.620;7.892;2023-05-13T10:06:43;1.23;;;0.30;;
9700;SDS011;4889;48.620;7.892;2023-05-13T10:09:09;1.60;;;0.80;;
9700;SDS011;4889;48.620;7.892;2023-05-13T10:11:35;1.20;;;0.30;;
9700;SDS011;4889;48.620;7.892;2023-05-13T10:14:01;1.10;;;0.30;;
9700;SDS011;4889;48.620;7.892;2023-05-13T10:16:28;1.00;;;0.40;;
9700;SDS011;4889;48.620;7.892;2023-05-13T10:18:55;1.93;;;0.80;;
9700;SDS011;4889;48.620;7.892;2023-05-13T10:21:20;1.53;;;0.30;;
9700;SDS011;4889;48.620;7.892;2023-05-13T10:23:46;2.13;;;0.30;;
9700;SDS011;4889;48.620;7.892;2023-05-13T10:26:11;2.70;;;0.77;;
9700;SDS011;4889;48.620;7.892;2023-05-13T10:28:37;2.50;;;0.30;;
9700;SDS011;4889;48.620;7.892;2023-05-13T10:31:02;2.50;;;0.30;;
9700;SDS011;4889;48.620;7.892;2023-05-13T10:33:28;2.70;;;0.30;;
9700;SDS011;4889;48.620;7.892;2023-05-13T10:38:27;3.00;;;0.30;;
9700;SDS011;4889;48.620;7.892;2023-05-13T10:41:24;3.20;;;0.40;;
9700;SDS011;4889;48.620;7.892;2023-05-13T10:43:56;3.90;;;0.50;;
9700;SDS011;4889;48.620;7.892;2023-05-13T10:46:22;3.50;;;0.60;;
9700;SDS011;4889;48.620;7.892;2023-05-13T10:48:48;3.20;;;0.30;;
9700;SDS011;4889;48.620;7.892;2023-05-13T10:51:14;3.20;;;0.30;;
9700;SDS011;4889;48.620;7.892;2023-05-13T10:53:46;4.00;;;0.80;;
9700;SDS011;4889;48.620;7.892;2023-05-13T10:56:12;3.50;;;0.97;;
9700;SDS011;4889;48.620;7.892;2023-05-13T10:58:37;3.20;;;0.30;;
9700;SDS011;4889;48.620;7.892;2023-05-13T11:01:16;3.30;;;0.50;;
9700;SDS011;4889;48.620;7.892;2023-05-13T11:03:52;3.50;;;0.53;;
9700;SDS011;4889;48.620;7.892;2023-05-13T11:08:46;3.40;;;0.37;;
9700;SDS011;4889;48.620;7.892;2023-05-13T11:11:22;3.40;;;0.30;;
9700;SDS011;4889;48.620;7.892;2023-05-13T11:13:53;3.30;;;0.30;;
9700;SDS011;4889;48.620;7.892;2023-05-13T11:16:19;3.60;;;0.83;;
9700;SDS011;4889;48.620;7.892;2023-05-13T11:18:44;3.50;;;0.30;;
9700;SDS011;4889;48.620;7.892;2023-05-13T11:21:10;3.70;;;0.30;;
9700;SDS011;4889;48.620;7.892;2023-05-13T11:26:21;3.60;;;0.30;;
9700;SDS011;4889;48.620;7.892;2023-05-13T11:31:21;4.18;;;0.50;;
9700;SDS011;4889;48.620;7.892;2023-05-13T11:36:32;4.00;;;0.30;;
9700;SDS011;4889;48.620;7.892;2023-05-13T11:39:08;4.00;;;0.30;;
9700;SDS011;4889;48.620;7.892;2023-05-13T11:41:35;3.92;;;0.30;;
9700;SDS011;4889;48.620;7.892;2023-05-13T11:44:00;3.88;;;0.30;;
9700;SDS011;4889;48.620;7.892;2023-05-13T11:46:27;3.80;;;0.30;;
9700;SDS011;4889;48.620;7.892;2023-05-13T11:48:53;4.20;;;0.50;;
9700;SDS011;4889;48.620;7.892;2023-05-13T11:51:18;4.20;;;0.80;;
9700;SDS011;4889;48.620;7.892;2023-05-13T11:53:43;3.80;;;0.30;;
9700;SDS011;4889;48.620;7.892;2023-05-13T11:56:08;3.60;;;0.30;;
9700;SDS011;4889;48.620;7.892;2023-05-13T11:58:34;3.63;;;0.30;;
9700;SDS011;4889;48.620;7.892;2023-05-13T12:01:00;3.70;;;0.30;;
9700;SDS011;4889;48.620;7.892;2023-05-13T12:03:26;4.20;;;0.57;;
9700;SDS011;4889;48.620;7.892;2023-05-13T12:05:58;3.67;;;0.30;;
9700;SDS011;4889;48.620;7.892;2023-05-13T12:08:24;3.78;;;0.30;;
9700;SDS011;4889;48.620;7.892;2023-05-13T12:10:49;3.80;;;0.30;;
9700;SDS011;4889;48.620;7.892;2023-05-13T12:13:15;3.70;;;0.30;;
9700;SDS011;4889;48.620;7.892;2023-05-13T12:15:40;3.80;;;0.30;;
9700;SDS011;4889;48.620;7.892;2023-05-13T12:18:06;3.72;;;0.30;;
9700;SDS011;4889;48.620;7.892;2023-05-13T12:20:31;4.53;;;1.27;;
9700;SDS011;4889;48.620;7.892;2023-05-13T12:22:57;3.75;;;0.30;;
9700;SDS011;4889;48.620;7.892;2023-05-13T12:25:37;3.70;;;0.40;;
9700;SDS011;4889;48.620;7.892;2023-05-13T12:28:10;3.63;;;0.30;;
9700;SDS011;4889;48.620;7.892;2023-05-13T12:30:36;4.63;;;0.40;;
9700;SDS011;4889;48.620;7.892;2023-05-13T12:33:02;3.70;;;0.30;;
9700;SDS011;4889;48.620;7.892;2023-05-13T12:35:29;3.80;;;0.30;;
9700;SDS011;4889;48.620;7.892;2023-05-13T12:38:01;3.70;;;0.30;;
9700;SDS011;4889;48.620;7.892;2023-05-13T12:40:27;3.75;;;0.30;;
9700;SDS011;4889;48.620;7.892;2023-05-13T12:42:55;3.67;;;0.30;;
9700;SDS011;4889;48.620;7.892;2023-05-13T12:45:20;3.55;;;0.30;;
9700;SDS011;4889;48.620;7.892;2023-05-13T12:47:47;3.60;;;0.30;;
9700;SDS011;4889;48.620;7.892;2023-05-13T12:50:14;3.60;;;0.40;;
9700;SDS011;4889;48.620;7.892;2023-05-13T12:52:39;3.63;;;0.30;;
9700;SDS011;4889;48.620;7.892;2023-05-13T12:55:05;4.32;;;0.82;;
9700;SDS011;4889;48.620;7.892;2023-05-13T12:57:30;3.63;;;0.30;;
9700;SDS011;4889;48.620;7.892;2023-05-13T12:59:56;3.85;;;0.40;;
9700;SDS011;4889;48.620;7.892;2023-05-13T13:02:21;3.60;;;0.30;;
9700;SDS011;4889;48.620;7.892;2023-05-13T13:04:46;3.70;;;0.30;;
9700;SDS011;4889;48.620;7.892;2023-05-13T13:07:11;4.00;;;0.40;;
9700;SDS011;4889;48.620;7.892;2023-05-13T13:09:38;3.70;;;0.30;;
9700;SDS011;4889;48.620;7.892;2023-05-13T13:12:03;3.67;;;0.30;;
9700;SDS011;4889;48.620;7.892;2023-05-13T13:14:29;4.05;;;0.57;;
9700;SDS011;4889;48.620;7.892;2023-05-13T13:16:54;3.67;;;0.30;;
9700;SDS011;4889;48.620;7.892;2023-05-13T13:19:19;3.60;;;0.30;;
9700;SDS011;4889;48.620;7.892;2023-05-13T13:21:44;3.90;;;0.50;;
9700;SDS011;4889;48.620;7.892;2023-05-13T13:24:10;3.58;;;0.30;;
9700;SDS011;4889;48.620;7.892;2023-05-13T13:26:35;3.60;;;0.40;;
9700;SDS011;4889;48.620;7.892;2023-05-13T13:29:00;4.97;;;1.83;;
9700;SDS011;4889;48.620;7.892;2023-05-13T13:31:25;3.53;;;0.30;;
9700;SDS011;4889;48.620;7.892;2023-05-13T13:33:50;3.60;;;0.30;;
9700;SDS011;4889;48.620;7.892;2023-05-13T13:36:17;3.50;;;0.30;;
9700;SDS011;4889;48.620;7.892;2023-05-13T13:38:43;3.55;;;0.40;;
9700;SDS011;4889;48.620;7.892;2023-05-13T13:41:08;3.60;;;0.30;;
9700;SDS011;4889;48.620;7.892;2023-05-13T13:43:33;3.65;;;0.30;;
9700;SDS011;4889;48.620;7.892;2023-05-13T13:45:59;3.80;;;0.50;;
9700;SDS011;4889;48.620;7.892;2023-05-13T13:48:24;3.75;;;0.30;;
9700;SDS011;4889;48.620;7.892;2023-05-13T13:50:49;3.58;;;0.30;;
9700;SDS011;4889;48.620;7.892;2023-05-13T13:53:14;3.60;;;0.30;;
9700;SDS011;4889;48.620;7.892;2023-05-13T13:55:40;3.63;;;0.40;;
9700;SDS011;4889;48.620;7.892;2023-05-13T13:58:05;3.47;;;0.30;;
9700;SDS011;4889;48.620;7.892;2023-05-13T14:00:30;3.40;;;0.30;;
9700;SDS011;4889;48.620;7.892;2023-05-13T14:02:55;3.20;;;0.30;;
9700;SDS011;4889;48.620;7.892;2023-05-13T14:05:21;3.20;;;0.30;;
9700;SDS011;4889;48.620;7.892;2023-05-13T14:07:46;3.20;;;0.30;;
9700;SDS011;4889;48.620;7.892;2023-05-13T14:10:13;3.40;;;0.57;;
9700;SDS011;4889;48.620;7.892;2023-05-13T14:12:38;3.13;;;0.30;;
9700;SDS011;4889;48.620;7.892;2023-05-13T14:15:04;2.75;;;0.30;;
9700;SDS011;4889;48.620;7.892;2023-05-13T14:17:30;2.70;;;0.30;;
9700;SDS011;4889;48.620;7.892;2023-05-13T14:19:56;2.80;;;0.40;;
9700;SDS011;4889;48.620;7.892;2023-05-13T14:22:22;2.70;;;0.30;;
9700;SDS011;4889;48.620;7.892;2023-05-13T14:24:49;2.70;;;0.30;;
9700;SDS011;4889;48.620;7.892;2023-05-13T14:27:14;2.40;;;0.30;;
9700;SDS011;4889;48.620;7.892;2023-05-13T14:29:40;2.53;;;0.30;;
9700;SDS011;4889;48.620;7.892;2023-05-13T14:32:05;4.43;;;0.77;;
9700;SDS011;4889;48.620;7.892;2023-05-13T14:34:31;2.50;;;0.30;;
9700;SDS011;4889;48.620;7.892;2023-05-13T14:36:56;2.60;;;0.40;;
9700;SDS011;4889;48.620;7.892;2023-05-13T14:39:22;2.50;;;0.30;;
9700;SDS011;4889;48.620;7.892;2023-05-13T14:41:47;2.58;;;0.30;;
9700;SDS011;4889;48.620;7.892;2023-05-13T14:44:12;2.70;;;0.50;;
9700;SDS011;4889;48.620;7.892;2023-05-13T14:46:38;2.70;;;0.50;;
9700;SDS011;4889;48.620;7.892;2023-05-13T14:49:05;2.72;;;0.30;;
9700;SDS011;4889;48.620;7.892;2023-05-13T14:51:30;2.72;;;0.30;;
9700;SDS011;4889;48.620;7.892;2023-05-13T14:53:55;2.65;;;0.40;;
9700;SDS011;4889;48.620;7.892;2023-05-13T14:56:21;2.58;;;0.30;;
9700;SDS011;4889;48.620;7.892;2023-05-13T14:58:46;2.70;;;0.30;;
9700;SDS011;4889;48.620;7.892;2023-05-13T15:01:11;2.60;;;0.30;;
9700;SDS011;4889;48.620;7.892;2023-05-13T15:03:36;2.75;;;0.30;;
9700;SDS011;4889;48.620;7.892;2023-05-13T15:06:02;3.00;;;0.30;;
9700;SDS011;4889;48.620;7.892;2023-05-13T15:08:27;2.90;;;0.30;;
9700;SDS011;4889;48.620;7.892;2023-05-13T15:10:52;2.88;;;0.30;;
9700;SDS011;4889;48.620;7.892;2023-05-13T15:13:17;2.92;;;0.30;;
9700;SDS011;4889;48.620;7.892;2023-05-13T15:15:43;2.78;;;0.30;;
9700;SDS011;4889;48.620;7.892;2023-05-13T15:18:08;3.00;;;0.30;;
9700;SDS011;4889;48.620;7.892;2023-05-13T15:20:33;3.10;;;0.30;;
9700;SDS011;4889;48.620;7.892;2023-05-13T15:22:59;3.00;;;0.30;;
9700;SDS011;4889;48.620;7.892;2023-05-13T15:25:24;3.20;;;0.35;;